Time;durP1;ratioP1;P1;durP2;ratioP2;P2;SDS_P1;SDS_P2;PMS_P1;PMS_P2;Temp;Humidity;BMP_temperature;BMP_pressure;BME280_temperature;BME280_humidity;BME280_pressure;Samples;Min_cycle;Max_cycle;Signal;HPM_P1;HPM_P2
2021/11/11 00:01:36;;;;;;;;;;;;;;;;;;5081999;28;19957;-72
2021/11/11 00:04:02;;;;;;;;;;;;;;;;;;5081397;28;19992;-73
2021/11/11 00:06:29;;;;;;;;;;;;;;;;;;5072568;28;20003;-73
2021/11/11 00:08:55;;;;;;;;;;;;;;;;;;5078158;28;20483;-73
2021/11/11 00:11:20;;;;;;;;;;;;;;;;;;5090707;28;19912;-73
2021/11/11 00:13:46;;;;;;;;;;;;;;;;;;5074532;28;20409;-73
2021/11/11 00:16:12;;;;;;;;;;;;;;;;;;5070393;28;19924;-73
2021/11/11 00:18:39;;;;;;;;;;;;;;;;;;5072165;28;19959;-73
2021/11/11 00:21:06;;;;;;;;;;;;;;;;;;5081780;28;19916;-74
2021/11/11 00:23:32;;;;;;;;;;;;;;;;;;5089850;28;19912;-73
2021/11/11 00:25:58;;;;;;;;;;;;;;;;;;5076654;28;19924;-73
2021/11/11 00:28:23;;;;;;;;;;;;;;;;;;5071758;28;20027;-73
2021/11/11 00:30:51;;;;;;;;;;;;;;;;;;5085823;28;20124;-73
2021/11/11 00:33:17;;;;;;;;;;;;;;;;;;5092342;28;19908;-73
2021/11/11 00:35:43;;;;;;;;;;;;;;;;;;5091857;28;20438;-73
2021/11/11 00:38:09;;;;;;;;;;;;;;;;;;5081408;28;19958;-73
2021/11/11 00:40:35;;;;;;;;;;;;;;;;;;5071654;28;20003;-73
2021/11/11 00:43:01;;;;;;;;;;;;;;;;;;5072042;28;20006;-74
2021/11/11 00:45:27;;;;;;;;;;;;;;;;;;5076971;28;20420;-73
2021/11/11 00:47:54;;;;;;;;;;;;;;;;;;5080321;28;19916;-74
2021/11/11 00:50:20;;;;;;;;;;;;;;;;;;5071718;28;19917;-73
2021/11/11 00:52:46;;;;;;;;;;;;;;;;;;5073183;28;20511;-73
2021/11/11 00:55:12;;;;;;;;;;;;;;;;;;5088493;28;19923;-73
2021/11/11 00:57:38;;;;;;;;;;;;;;;;;;5073824;28;19913;-73
2021/11/11 01:00:04;;;;;;;;;;;;;;;;;;5070318;28;19999;-73
2021/11/11 01:02:30;;;;;;;;;;;;;;;;;;5070334;28;19917;-73
2021/11/11 01:04:56;;;;;;;;;;;;;;;;;;5071167;28;19912;-73
2021/11/11 01:07:22;;;;;;;;;;;;;;;;;;5073048;28;20257;-73
2021/11/11 01:09:48;;;;;;;;;;;;;;;;;;5070201;28;19920;-73
2021/11/11 01:12:14;;;;;;;;;;;;;;;;;;5071047;28;19915;-73
2021/11/11 01:14:40;;;;;;;;;;;;;;;;;;5070591;28;19928;-73
2021/11/11 01:17:06;;;;;;;;;;;;;;;;;;5070914;28;20323;-73
2021/11/11 01:19:31;;;;;;;;;;;;;;;;;;5071007;28;19919;-73
2021/11/11 01:21:57;;;;;;;;;;;;;;;;;;5070958;28;19924;-73
2021/11/11 01:24:23;;;;;;;;;;;;;;;;;;5067816;28;19916;-73
2021/11/11 01:26:50;;;;;;;;;;;;;;;;;;5071139;28;19908;-73
2021/11/11 01:29:16;;;;;;;;;;;;;;;;;;5074884;28;19921;-73
2021/11/11 01:31:42;;;;;;;;;;;;;;;;;;5069710;28;19909;-73
2021/11/11 01:34:08;;;;;;;;;;;;;;;;;;5070671;28;20284;-73
2021/11/11 01:36:34;;;;;;;;;;;;;;;;;;5069930;28;19920;-73
2021/11/11 01:39:00;;;;;;;;;;;;;;;;;;5069797;28;19970;-73
2021/11/11 01:41:26;;;;;;;;;;;;;;;;;;5070473;28;19951;-73
2021/11/11 01:43:52;;;;;;;;;;;;;;;;;;5076712;28;19912;-73
2021/11/11 01:46:18;;;;;;;;;;;;;;;;;;5070375;28;19908;-73
2021/11/11 01:48:44;;;;;;;;;;;;;;;;;;5069089;28;19912;-73
2021/11/11 01:51:09;;;;;;;;;;;;;;;;;;5069185;28;19917;-73
2021/11/11 01:53:36;;;;;;;;;;;;;;;;;;5066623;28;20437;-73
2021/11/11 01:56:02;;;;;;;;;;;;;;;;;;5070356;28;20306;-73
2021/11/11 01:58:28;;;;;;;;;;;;;;;;;;5070219;28;19912;-73
2021/11/11 02:00:54;;;;;;;;;;;;;;;;;;5070555;28;19959;-73
2021/11/11 02:03:21;;;;;;;;;;;;;;;;;;5071149;28;20006;-73
2021/11/11 02:05:47;;;;;;;;;;;;;;;;;;5071097;28;20343;-73
2021/11/11 02:08:13;;;;;;;;;;;;;;;;;;5069273;28;19970;-73
2021/11/11 02:10:38;;;;;;;;;;;;;;;;;;5070149;28;20426;-73
2021/11/11 02:13:04;;;;;;;;;;;;;;;;;;5075012;28;19928;-73
2021/11/11 02:15:30;;;;;;;;;;;;;;;;;;5090166;28;19924;-72
2021/11/11 02:17:56;;;;;;;;;;;;;;;;;;5086017;28;19920;-73
2021/11/11 02:20:23;;;;;;;;;;;;;;;;;;5070739;28;19961;-73
2021/11/11 02:22:49;;;;;;;;;;;;;;;;;;5068902;28;19958;-73
2021/11/11 02:25:15;;;;;;;;;;;;;;;;;;5076437;28;19913;-73
2021/11/11 02:27:40;;;;;;;;;;;;;;;;;;5088960;28;20332;-73
2021/11/11 02:30:06;;;;;;;;;;;;;;;;;;5070041;28;19912;-73
2021/11/11 02:32:32;;;;;;;;;;;;;;;;;;5068521;28;19935;-73
2021/11/11 02:34:58;;;;;;;;;;;;;;;;;;5069723;28;20582;-73
2021/11/11 02:37:25;;;;;;;;;;;;;;;;;;5070460;28;19913;-73
2021/11/11 02:39:51;;;;;;;;;;;;;;;;;;5069312;28;19970;-73
2021/11/11 02:42:17;;;;;;;;;;;;;;;;;;5069735;28;19909;-73
2021/11/11 02:44:43;;;;;;;;;;;;;;;;;;5089896;28;19966;-73
2021/11/11 02:47:09;;;;;;;;;;;;;;;;;;5090830;28;19958;-73
2021/11/11 02:49:35;;;;;;;;;;;;;;;;;;5091469;28;19908;-73
2021/11/11 02:52:01;;;;;;;;;;;;;;;;;;5093005;28;20318;-73
2021/11/11 02:54:26;;;;;;;;;;;;;;;;;;5078147;28;19915;-73
2021/11/11 02:56:52;;;;;;;;;;;;;;;;;;5073872;28;19920;-73
2021/11/11 02:59:18;;;;;;;;;;;;;;;;;;5077215;28;20014;-73
2021/11/11 03:01:44;;;;;;;;;;;;;;;;;;5072541;28;19913;-73
2021/11/11 03:04:11;;;;;;;;;;;;;;;;;;5074506;28;19967;-73
2021/11/11 03:06:37;;;;;;;;;;;;;;;;;;5073620;28;19923;-73
2021/11/11 03:09:03;;;;;;;;;;;;;;;;;;5073559;28;19912;-73
2021/11/11 03:11:31;;;;;;;;;;;;;;;;;;5086277;28;19964;-73
2021/11/11 03:13:57;;;;;;;;;;;;;;;;;;5079402;28;19916;-73
2021/11/11 03:16:23;;;;;;;;;;;;;;;;;;5072099;28;19917;-73
2021/11/11 03:18:49;;;;;;;;;;;;;;;;;;5072791;28;19966;-73
2021/11/11 03:21:15;;;;;;;;;;;;;;;;;;5073548;28;19955;-73
2021/11/11 03:23:41;;;;;;;;;;;;;;;;;;5071105;28;20009;-73
2021/11/11 03:26:07;;;;;;;;;;;;;;;;;;5071910;28;20574;-73
2021/11/11 03:28:33;;;;;;;;;;;;;;;;;;5083354;28;19973;-73
2021/11/11 03:30:58;;;;;;;;;;;;;;;;;;5091170;28;19912;-73
2021/11/11 03:33:24;;;;;;;;;;;;;;;;;;5093446;28;19965;-73
2021/11/11 03:35:50;;;;;;;;;;;;;;;;;;5092570;28;20426;-73
2021/11/11 03:38:18;;;;;;;;;;;;;;;;;;5079273;28;19916;-73
2021/11/11 03:40:43;;;;;;;;;;;;;;;;;;5072995;28;19908;-73
2021/11/11 03:43:09;;;;;;;;;;;;;;;;;;5072758;28;20311;-73
2021/11/11 03:45:35;;;;;;;;;;;;;;;;;;5073633;28;19919;-73
2021/11/11 03:48:01;;;;;;;;;;;;;;;;;;5072790;28;19912;-73
2021/11/11 03:50:28;;;;;;;;;;;;;;;;;;5073046;28;20288;-73
2021/11/11 03:52:55;;;;;;;;;;;;;;;;;;5072755;28;20016;-73
2021/11/11 03:55:23;;;;;;;;;;;;;;;;;;5071040;28;20447;-73
2021/11/11 03:57:49;;;;;;;;;;;;;;;;;;5080495;28;19912;-73
2021/11/11 04:00:15;;;;;;;;;;;;;;;;;;5085242;28;20276;-73
2021/11/11 04:02:41;;;;;;;;;;;;;;;;;;5076621;28;19909;-73
2021/11/11 04:05:07;;;;;;;;;;;;;;;;;;5089840;28;20585;-73
2021/11/11 04:07:33;;;;;;;;;;;;;;;;;;5085669;28;19912;-73
2021/11/11 04:09:58;;;;;;;;;;;;;;;;;;5072464;28;19912;-72
2021/11/11 04:12:24;;;;;;;;;;;;;;;;;;5071342;28;19944;-73
2021/11/11 04:14:50;;;;;;;;;;;;;;;;;;5072295;28;19925;-73
2021/11/11 04:17:16;;;;;;;;;;;;;;;;;;5072151;28;19966;-73
2021/11/11 04:19:42;;;;;;;;;;;;;;;;;;5072146;28;19909;-73
2021/11/11 04:22:08;;;;;;;;;;;;;;;;;;5072319;28;20018;-73
2021/11/11 04:24:34;;;;;;;;;;;;;;;;;;5070192;28;19923;-73
2021/11/11 04:27:07;;;;;;;;;;;;;;;;;;5072376;28;19917;-73
2021/11/11 04:29:35;;;;;;;;;;;;;;;;;;5071071;28;20000;-73
2021/11/11 04:32:03;;;;;;;;;;;;;;;;;;5072329;28;19914;-73
2021/11/11 04:34:29;;;;;;;;;;;;;;;;;;5091977;28;19923;-73
2021/11/11 04:37:16;;;;;;;;;;;;;;;;;;5071655;28;19913;-73
2021/11/11 05:03:38;;;;;;;;;;;;;;;;;;5092042;28;20305;-73
2021/11/11 05:06:04;;;;;;;;;;;;;;;;;;5089784;28;19999;-73
2021/11/11 05:08:30;;;;;;;;;;;;;;;;;;5079231;28;20582;-73
2021/11/11 05:10:56;;;;;;;;;;;;;;;;;;5071371;28;19958;-73
2021/11/11 05:13:22;;;;;;;;;;;;;;;;;;5069885;28;19916;-73
2021/11/11 05:15:48;;;;;;;;;;;;;;;;;;5071149;28;19935;-73
2021/11/11 05:18:13;;;;;;;;;;;;;;;;;;5078759;28;20003;-73
2021/11/11 05:20:39;;;;;;;;;;;;;;;;;;5090999;28;20275;-73
2021/11/11 05:23:05;;;;;;;;;;;;;;;;;;5090194;28;19991;-73
2021/11/11 05:25:31;;;;;;;;;;;;;;;;;;5090296;28;19912;-73
2021/11/11 05:27:57;;;;;;;;;;;;;;;;;;5077343;28;19912;-73
2021/11/11 05:30:23;;;;;;;;;;;;;;;;;;5070525;28;19919;-73
2021/11/11 05:32:49;;;;;;;;;;;;;;;;;;5070904;28;19989;-73
2021/11/11 05:35:15;;;;;;;;;;;;;;;;;;5070419;28;19923;-73
2021/11/11 05:37:41;;;;;;;;;;;;;;;;;;5071615;28;19917;-73
2021/11/11 05:40:06;;;;;;;;;;;;;;;;;;5086278;28;19991;-73
2021/11/11 05:42:32;;;;;;;;;;;;;;;;;;5090637;28;19920;-73
2021/11/11 05:44:58;;;;;;;;;;;;;;;;;;5072787;28;19913;-73
2021/11/11 05:47:24;;;;;;;;;;;;;;;;;;5070213;28;20073;-73
2021/11/11 05:49:50;;;;;;;;;;;;;;;;;;5084402;28;19916;-73
2021/11/11 05:52:16;;;;;;;;;;;;;;;;;;5084089;28;20007;-73
2021/11/11 05:54:42;;;;;;;;;;;;;;;;;;5066936;28;19921;-73
2021/11/11 05:57:08;;;;;;;;;;;;;;;;;;5069910;28;19968;-73
2021/11/11 05:59:36;;;;;;;;;;;;;;;;;;5069250;28;19913;-73
2021/11/11 06:02:02;;;;;;;;;;;;;;;;;;5070635;28;19923;-73
2021/11/11 06:04:28;;;;;;;;;;;;;;;;;;5071205;28;19926;-73
2021/11/11 06:06:54;;;;;;;;;;;;;;;;;;5069936;28;20385;-73
2021/11/11 06:09:20;;;;;;;;;;;;;;;;;;5070116;28;20042;-73
2021/11/11 06:11:46;;;;;;;;;;;;;;;;;;5069896;28;20255;-73
2021/11/11 06:14:12;;;;;;;;;;;;;;;;;;5079638;28;19931;-73
2021/11/11 06:16:38;;;;;;;;;;;;;;;;;;5088287;28;19969;-73
2021/11/11 06:19:06;;;;;;;;;;;;;;;;;;5076511;28;20344;-73
2021/11/11 06:21:32;;;;;;;;;;;;;;;;;;5069608;28;19920;-73
2021/11/11 06:23:58;;;;;;;;;;;;;;;;;;5067914;28;20034;-73
2021/11/11 06:26:24;;;;;;;;;;;;;;;;;;5069871;28;19912;-73
2021/11/11 06:28:50;;;;;;;;;;;;;;;;;;5069792;28;20156;-73
2021/11/11 06:31:15;;;;;;;;;;;;;;;;;;5068970;28;19912;-73
2021/11/11 06:33:41;;;;;;;;;;;;;;;;;;5069725;28;19919;-73
2021/11/11 06:36:07;;;;;;;;;;;;;;;;;;5087853;28;19916;-73
2021/11/11 06:38:33;;;;;;;;;;;;;;;;;;5086228;28;20491;-73
2021/11/11 06:40:59;;;;;;;;;;;;;;;;;;5088626;28;20583;-73
2021/11/11 06:43:25;;;;;;;;;;;;;;;;;;5089882;28;19912;-73
2021/11/11 06:45:51;;;;;;;;;;;;;;;;;;5079718;28;20015;-73
2021/11/11 06:48:17;;;;;;;;;;;;;;;;;;5077559;28;20585;-73
2021/11/11 06:50:43;;;;;;;;;;;;;;;;;;5069568;28;19912;-73
2021/11/11 06:53:09;;;;;;;;;;;;;;;;;;5086269;28;19958;-73
2021/11/11 06:55:35;;;;;;;;;;;;;;;;;;5086336;28;19916;-73
2021/11/11 06:58:01;;;;;;;;;;;;;;;;;;5087401;28;19989;-73
2021/11/11 07:00:27;;;;;;;;;;;;;;;;;;5071834;28;20582;-73
2021/11/11 07:02:53;;;;;;;;;;;;;;;;;;5086113;28;20022;-74
2021/11/11 07:05:19;;;;;;;;;;;;;;;;;;5086444;28;19912;-73
2021/11/11 07:07:44;;;;;;;;;;;;;;;;;;5089586;28;19966;-72
2021/11/11 07:10:10;;;;;;;;;;;;;;;;;;5089846;28;20371;-73
2021/11/11 07:12:36;;;;;;;;;;;;;;;;;;5088118;28;19914;-73
2021/11/11 07:15:05;;;;;;;;;;;;;;;;;;5072112;28;19925;-72
2021/11/11 07:17:33;;;;;;;;;;;;;;;;;;5069071;28;19912;-73
2021/11/11 07:19:59;;;;;;;;;;;;;;;;;;5076658;28;20268;-73
2021/11/11 07:22:25;;;;;;;;;;;;;;;;;;5089676;28;19908;-73
2021/11/11 07:24:51;;;;;;;;;;;;;;;;;;5084107;28;20556;-73
2021/11/11 07:27:18;;;;;;;;;;;;;;;;;;5088682;28;19920;-73
2021/11/11 07:29:44;;;;;;;;;;;;;;;;;;5088712;28;20010;-73
2021/11/11 07:32:09;;;;;;;;;;;;;;;;;;5089624;28;20345;-73
2021/11/11 07:34:36;;;;;;;;;;;;;;;;;;5088012;28;19919;-73
2021/11/11 07:37:02;;;;;;;;;;;;;;;;;;5074376;28;19920;-72
2021/11/11 07:39:28;;;;;;;;;;;;;;;;;;5072436;28;19912;-73
2021/11/11 07:41:54;;;;;;;;;;;;;;;;;;5084961;28;20008;-73
2021/11/11 07:44:20;;;;;;;;;;;;;;;;;;5092395;28;19973;-73
2021/11/11 07:46:45;;;;;;;;;;;;;;;;;;5075694;28;19920;-73
2021/11/11 07:49:11;;;;;;;;;;;;;;;;;;5090533;28;19912;-73
2021/11/11 07:51:37;;;;;;;;;;;;;;;;;;5074487;28;19916;-73
2021/11/11 07:54:03;;;;;;;;;;;;;;;;;;5087819;28;20830;-73
2021/11/11 07:56:29;;;;;;;;;;;;;;;;;;5085032;28;19920;-73
2021/11/11 07:58:55;;;;;;;;;;;;;;;;;;5071901;28;19989;-73
2021/11/11 08:01:21;;;;;;;;;;;;;;;;;;5083302;28;19921;-73
2021/11/11 08:03:47;;;;;;;;;;;;;;;;;;5084232;28;19919;-73
2021/11/11 08:06:13;;;;;;;;;;;;;;;;;;5080890;28;20196;-73
2021/11/11 08:08:39;;;;;;;;;;;;;;;;;;5088819;28;19908;-73
2021/11/11 08:11:05;;;;;;;;;;;;;;;;;;5069937;28;19917;-73
2021/11/11 08:13:31;;;;;;;;;;;;;;;;;;5074996;28;19924;-73
2021/11/11 08:15:57;;;;;;;;;;;;;;;;;;5070891;28;20361;-73
2021/11/11 08:18:23;;;;;;;;;;;;;;;;;;5072674;28;19999;-73
2021/11/11 08:20:49;;;;;;;;;;;;;;;;;;5091589;28;20333;-73
2021/11/11 08:23:15;;;;;;;;;;;;;;;;;;5089775;28;19908;-73
2021/11/11 08:25:43;;;;;;;;;;;;;;;;;;5089620;28;19958;-73
2021/11/11 08:28:09;;;;;;;;;;;;;;;;;;5091296;28;19908;-72
2021/11/11 08:30:35;;;;;;;;;;;;;;;;;;5089510;28;19977;-73
2021/11/11 08:33:01;;;;;;;;;;;;;;;;;;5079868;28;19912;-73
2021/11/11 08:35:27;;;;;;;;;;;;;;;;;;5069576;28;20418;-72
2021/11/11 08:37:53;;;;;;;;;;;;;;;;;;5070099;28;19953;-73
2021/11/11 08:40:19;;;;;;;;;;;;;;;;;;5069794;28;19978;-73
2021/11/11 08:42:45;;;;;;;;;;;;;;;;;;5082001;28;19956;-73
2021/11/11 08:45:11;;;;;;;;;;;;;;;;;;5090710;28;19908;-72
2021/11/11 08:47:37;;;;;;;;;;;;;;;;;;5090519;28;19982;-73
2021/11/11 08:50:04;;;;;;;;;;;;;;;;;;5089673;28;19914;-73
2021/11/11 08:52:30;;;;;;;;;;;;;;;;;;5091195;28;20387;-73
2021/11/11 08:54:55;;;;;;;;;;;;;;;;;;5087963;28;19912;-73
2021/11/11 08:57:21;;;;;;;;;;;;;;;;;;5090501;28;20360;-73
2021/11/11 08:59:52;;;;;;;;;;;;;;;;;;5091265;28;19998;-72
2021/11/11 09:02:18;;;;;;;;;;;;;;;;;;5089239;28;19918;-73
2021/11/11 09:04:44;;;;;;;;;;;;;;;;;;5090583;28;19908;-73
2021/11/11 09:07:10;;;;;;;;;;;;;;;;;;5088206;28;20019;-73
2021/11/11 09:09:36;;;;;;;;;;;;;;;;;;5070567;28;19995;-73
2021/11/11 09:12:02;;;;;;;;;;;;;;;;;;5069968;28;20000;-73
2021/11/11 09:14:28;;;;;;;;;;;;;;;;;;5069957;28;20011;-73
2021/11/11 09:16:54;;;;;;;;;;;;;;;;;;5069001;28;19928;-73
2021/11/11 09:19:20;;;;;;;;;;;;;;;;;;5072576;28;19916;-73
2021/11/11 09:21:46;;;;;;;;;;;;;;;;;;5081274;28;19912;-73
2021/11/11 09:24:12;;;;;;;;;;;;;;;;;;5080607;28;20308;-73
2021/11/11 09:26:38;;;;;;;;;;;;;;;;;;5089328;28;19915;-72
2021/11/11 09:29:04;;;;;;;;;;;;;;;;;;5089764;28;19990;-72
2021/11/11 09:31:30;;;;;;;;;;;;;;;;;;5089854;28;19915;-73
2021/11/11 09:33:55;;;;;;;;;;;;;;;;;;5091072;28;19954;-73
2021/11/11 09:36:21;;;;;;;;;;;;;;;;;;5081372;28;19970;-74
2021/11/11 09:38:47;;;;;;;;;;;;;;;;;;5074101;28;19924;-74
2021/11/11 09:41:13;;;;;;;;;;;;;;;;;;5074738;28;20435;-73
2021/11/11 09:43:39;;;;;;;;;;;;;;;;;;5065918;28;19968;-74
2021/11/11 09:46:05;;;;;;;;;;;;;;;;;;5066760;28;20322;-74
2021/11/11 09:48:32;;;;;;;;;;;;;;;;;;5065956;28;19962;-74
2021/11/11 09:50:58;;;;;;;;;;;;;;;;;;5066773;28;19990;-74
2021/11/11 09:53:24;;;;;;;;;;;;;;;;;;5063360;28;20359;-74
2021/11/11 09:58:35;;;;;;;;;;;;;;;;;;5067000;28;19954;-73
2021/11/11 10:01:00;;;;;;;;;;;;;;;;;;5065232;28;19966;-74
2021/11/11 10:03:27;;;;;;;;;;;;;;;;;;5065834;28;19913;-74
2021/11/11 10:05:53;;;;;;;;;;;;;;;;;;5066749;28;19912;-74
2021/11/11 10:08:19;;;;;;;;;;;;;;;;;;5066549;28;19908;-74
2021/11/11 10:10:44;;;;;;;;;;;;;;;;;;5065194;28;20284;-74
2021/11/11 10:13:10;;;;;;;;;;;;;;;;;;5066482;28;19909;-74
2021/11/11 10:15:36;;;;;;;;;;;;;;;;;;5065897;28;19924;-74
2021/11/11 10:28:54;;;;;;;;;;;;;;;;;;5049119;28;19913;-75
2021/11/11 10:31:20;;;;;;;;;;;;;;;;;;5028931;28;19920;-75
2021/11/11 10:33:46;;;;;;;;;;;;;;;;;;5013798;28;20008;-75
2021/11/11 10:36:12;;;;;;;;;;;;;;;;;;5025335;28;19913;-76
2021/11/11 10:38:38;;;;;;;;;;;;;;;;;;5027003;28;19914;-76
2021/11/11 10:41:03;;;;;;;;;;;;;;;;;;5008785;28;20440;-73
2021/11/11 10:43:31;;;;;;;;;;;;;;;;;;5010404;28;19911;-74
2021/11/11 10:45:59;;;;;;;;;;;;;;;;;;5047032;28;20361;-76
2021/11/11 10:48:25;;;;;;;;;;;;;;;;;;5028999;28;19909;-74
2021/11/11 10:50:51;;;;;;;;;;;;;;;;;;5028467;28;19909;-75
2021/11/11 10:53:17;;;;;;;;;;;;;;;;;;5023367;28;19910;-74
2021/11/11 10:55:43;;;;;;;;;;;;;;;;;;5034560;28;20409;-75
2021/11/11 10:58:09;;;;;;;;;;;;;;;;;;5042261;28;19924;-75
2021/11/11 11:00:34;;;;;;;;;;;;;;;;;;5024963;28;19917;-76
2021/11/11 11:03:01;;;;;;;;;;;;;;;;;;5040471;28;20354;-76
2021/11/11 11:05:28;;;;;;;;;;;;;;;;;;5023835;28;21269;-76
2021/11/11 11:07:54;;;;;;;;;;;;;;;;;;5039029;28;20432;-75
2021/11/11 11:10:20;;;;;;;;;;;;;;;;;;5035765;28;20015;-75
2021/11/11 11:12:46;;;;;;;;;;;;;;;;;;5039462;28;19953;-77
2021/11/11 11:15:12;;;;;;;;;;;;;;;;;;5025797;28;19920;-75
2021/11/11 11:17:37;;;;;;;;;;;;;;;;;;5024102;28;19944;-76
2021/11/11 11:20:03;;;;;;;;;;;;;;;;;;5025120;28;19913;-75
2021/11/11 11:22:29;;;;;;;;;;;;;;;;;;5042513;28;19936;-74
2021/11/11 11:24:55;;;;;;;;;;;;;;;;;;5026685;28;19937;-75
2021/11/11 11:27:21;;;;;;;;;;;;;;;;;;5024809;28;20015;-75
2021/11/11 11:29:57;;;;;;;;;;;;;;;;;;5011961;28;19913;-75
2021/11/11 11:32:25;;;;;;;;;;;;;;;;;;5012808;28;19909;-75
2021/11/11 11:34:56;;;;;;;;;;;;;;;;;;5012272;28;19914;-75
2021/11/11 11:37:22;;;;;;;;;;;;;;;;;;5011034;28;19964;-75
2021/11/11 11:39:48;;;;;;;;;;;;;;;;;;5016630;28;19913;-75
2021/11/11 11:42:14;;;;;;;;;;;;;;;;;;5028982;28;20003;-75
2021/11/11 11:44:40;;;;;;;;;;;;;;;;;;5031111;28;20336;-76
2021/11/11 11:47:10;;;;;;;;;;;;;;;;;;5029537;28;19914;-75
2021/11/11 11:49:37;;;;;;;;;;;;;;;;;;5029763;28;19959;-75
2021/11/11 11:52:03;;;;;;;;;;;;;;;;;;5029881;28;20282;-75
2021/11/11 11:54:35;;;;;;;;;;;;;;;;;;5029352;28;20222;-76
2021/11/11 11:57:05;;;;;;;;;;;;;;;;;;5029715;28;19917;-76
2021/11/11 11:59:37;;;;;;;;;;;;;;;;;;5010133;28;19964;-76
2021/11/11 12:02:18;;;;;;;;;;;;;;;;;;5009762;28;20158;-76
2021/11/11 12:07:25;;;;;;;;;;;;;;;;;;5010379;28;19944;-75
2021/11/11 12:10:13;;;;;;;;;;;;;;;;;;5011208;28;19921;-76
2021/11/11 12:15:32;;;;;;;;;;;;;;;;;;5011195;28;20308;-76
2021/11/11 12:29:40;;;;;;;;;;;;;;;;;;5010882;28;19928;-75
2021/11/11 12:40:15;;;;;;;;;;;;;;;;;;5010801;28;19917;-75
2021/11/11 12:42:42;;;;;;;;;;;;;;;;;;5010484;28;19909;-76
2021/11/11 12:45:08;;;;;;;;;;;;;;;;;;5008933;28;19909;-75
2021/11/11 12:47:34;;;;;;;;;;;;;;;;;;5009007;28;20202;-76
2021/11/11 12:50:00;;;;;;;;;;;;;;;;;;5009922;28;19910;-75
2021/11/11 12:52:26;;;;;;;;;;;;;;;;;;5010107;28;19936;-75
2021/11/11 12:54:52;;;;;;;;;;;;;;;;;;5008274;28;19921;-77
2021/11/11 12:57:18;;;;;;;;;;;;;;;;;;5010888;28;19914;-75
2021/11/11 12:59:44;;;;;;;;;;;;;;;;;;5009442;28;19913;-75
2021/11/11 13:02:10;;;;;;;;;;;;;;;;;;5008565;28;19910;-76
2021/11/11 13:04:36;;;;;;;;;;;;;;;;;;5009716;28;19910;-75
2021/11/11 13:07:02;;;;;;;;;;;;;;;;;;5025860;28;19920;-76
2021/11/11 13:09:28;;;;;;;;;;;;;;;;;;5030413;28;20020;-75
2021/11/11 13:11:54;;;;;;;;;;;;;;;;;;5029006;28;19913;-74
2021/11/11 13:14:20;;;;;;;;;;;;;;;;;;5029115;28;20100;-76
2021/11/11 13:16:46;;;;;;;;;;;;;;;;;;5030415;28;19924;-75
2021/11/11 13:19:12;;;;;;;;;;;;;;;;;;5028339;28;19909;-75
2021/11/11 13:21:52;;;;;;;;;;;;;;;;;;5029019;28;19916;-75
2021/11/11 13:24:30;;;;;;;;;;;;;;;;;;5026169;28;19909;-75
2021/11/11 13:54:01;;;;;;;;;;;;;;;;;;5028864;28;20411;-74
2021/11/11 14:00:51;;;;;;;;;;;;;;;;;;5009539;28;19920;-76
2021/11/11 14:03:51;;;;;;;;;;;;;;;;;;5006388;28;20389;-76
2021/11/11 15:20:04;;;;;;;;;;;;;;;;;;5012567;28;20532;-75
2021/11/11 16:19:44;;;;;;;;;;;;;;;;;;5021460;28;19921;-76
2021/11/11 16:27:30;;;;;;;;;;;;;;;;;;5010904;28;19921;-76
2021/11/11 16:29:56;;;;;;;;;;;;;;;;;;5009844;28;19913;-76
2021/11/11 16:32:22;;;;;;;;;;;;;;;;;;5009429;28;19909;-75
2021/11/11 16:34:47;;;;;;;;;;;;;;;;;;5009517;28;19913;-77
2021/11/11 16:37:14;;;;;;;;;;;;;;;;;;5010940;28;20016;-75
2021/11/11 16:39:41;;;;;;;;;;;;;;;;;;5009013;28;19914;-75
2021/11/11 16:42:07;;;;;;;;;;;;;;;;;;5009164;28;19914;-75
2021/11/11 16:44:33;;;;;;;;;;;;;;;;;;5009261;28;20008;-75
2021/11/11 16:46:59;;;;;;;;;;;;;;;;;;5019045;28;19920;-77
2021/11/11 16:49:26;;;;;;;;;;;;;;;;;;5018370;28;19944;-75
2021/11/11 16:51:52;;;;;;;;;;;;;;;;;;5010287;28;19910;-75
2021/11/11 16:54:18;;;;;;;;;;;;;;;;;;5007529;28;19913;-75
2021/11/11 16:56:44;;;;;;;;;;;;;;;;;;5010260;28;20672;-76
2021/11/11 16:59:10;;;;;;;;;;;;;;;;;;5009148;28;20106;-77
2021/11/11 17:01:36;;;;;;;;;;;;;;;;;;5010157;28;19997;-76
2021/11/11 17:04:03;;;;;;;;;;;;;;;;;;5010294;28;19910;-75
2021/11/11 17:06:29;;;;;;;;;;;;;;;;;;5015475;28;19916;-76
2021/11/11 17:08:55;;;;;;;;;;;;;;;;;;5029961;28;19913;-75
2021/11/11 17:11:21;;;;;;;;;;;;;;;;;;5028829;28;19909;-76
2021/11/11 17:13:48;;;;;;;;;;;;;;;;;;5029895;28;19916;-76
2021/11/11 17:16:17;;;;;;;;;;;;;;;;;;5029087;28;20282;-76
2021/11/11 17:18:43;;;;;;;;;;;;;;;;;;5017992;28;19999;-75
2021/11/11 17:21:17;;;;;;;;;;;;;;;;;;5009835;28;19973;-76
2021/11/11 17:23:52;;;;;;;;;;;;;;;;;;5007958;28;19921;-76
2021/11/11 17:29:03;;;;;;;;;;;;;;;;;;5028865;28;19928;-76
2021/11/11 17:31:29;;;;;;;;;;;;;;;;;;5029865;28;20293;-75
2021/11/11 17:33:55;;;;;;;;;;;;;;;;;;5014558;28;20056;-76
2021/11/11 17:36:20;;;;;;;;;;;;;;;;;;5012058;28;19913;-77
2021/11/11 17:38:46;;;;;;;;;;;;;;;;;;5011827;28;19910;-76
2021/11/11 17:41:13;;;;;;;;;;;;;;;;;;5012064;28;19914;-76
2021/11/11 17:43:39;;;;;;;;;;;;;;;;;;5008512;28;19999;-75
2021/11/11 17:46:15;;;;;;;;;;;;;;;;;;5023351;28;19909;-76
2021/11/11 17:48:46;;;;;;;;;;;;;;;;;;5023498;28;19917;-75
2021/11/11 17:51:31;;;;;;;;;;;;;;;;;;5016672;28;19968;-75
2021/11/11 17:54:00;;;;;;;;;;;;;;;;;;5026136;28;19963;-75
2021/11/11 17:56:28;;;;;;;;;;;;;;;;;;5024364;28;19916;-75
2021/11/11 17:58:56;;;;;;;;;;;;;;;;;;5009361;28;19949;-76
2021/11/11 18:01:22;;;;;;;;;;;;;;;;;;5010040;28;20386;-76
2021/11/11 18:03:49;;;;;;;;;;;;;;;;;;5010415;28;19910;-76
2021/11/11 18:06:17;;;;;;;;;;;;;;;;;;5008107;28;19914;-75
2021/11/11 18:08:45;;;;;;;;;;;;;;;;;;5014317;28;19919;-75
2021/11/11 18:11:14;;;;;;;;;;;;;;;;;;5010273;28;19918;-76
2021/11/11 18:13:42;;;;;;;;;;;;;;;;;;5027805;28;19913;-75
2021/11/11 18:16:31;;;;;;;;;;;;;;;;;;5027994;28;19909;-75
2021/11/11 18:18:55;;;;;;;;;;;;;;;;;;5028380;28;19944;-75
2021/11/11 18:21:22;;;;;;;;;;;;;;;;;;5029024;28;19914;-74
2021/11/11 18:23:50;;;;;;;;;;;;;;;;;;5023818;28;20392;-75
2021/11/11 18:26:16;;;;;;;;;;;;;;;;;;5017193;28;20000;-76
2021/11/11 18:28:52;;;;;;;;;;;;;;;;;;5019105;28;20346;-75
2021/11/11 18:31:23;;;;;;;;;;;;;;;;;;5027473;28;19909;-75
2021/11/11 18:33:59;;;;;;;;;;;;;;;;;;5027670;28;19921;-75
2021/11/11 18:36:37;;;;;;;;;;;;;;;;;;5018933;28;19948;-74
2021/11/11 18:39:03;;;;;;;;;;;;;;;;;;5029209;28;19913;-75
2021/11/11 18:41:30;;;;;;;;;;;;;;;;;;5015069;28;19942;-77
2021/11/11 18:43:55;;;;;;;;;;;;;;;;;;5014779;28;19917;-75
2021/11/11 18:46:22;;;;;;;;;;;;;;;;;;5019059;28;19913;-75
2021/11/11 18:48:51;;;;;;;;;;;;;;;;;;5022878;28;20274;-74
2021/11/11 18:51:24;;;;;;;;;;;;;;;;;;5014894;28;20301;-75
2021/11/11 18:53:50;;;;;;;;;;;;;;;;;;5011984;28;19910;-76
2021/11/11 18:56:16;;;;;;;;;;;;;;;;;;5010779;28;19920;-75
2021/11/11 18:58:42;;;;;;;;;;;;;;;;;;5031302;28;19995;-75
2021/11/11 19:01:08;;;;;;;;;;;;;;;;;;5031043;28;19932;-75
2021/11/11 19:03:36;;;;;;;;;;;;;;;;;;5018354;28;19913;-76
2021/11/11 19:06:12;;;;;;;;;;;;;;;;;;5011264;28;19909;-75
2021/11/11 19:08:49;;;;;;;;;;;;;;;;;;5012492;28;20369;-75
2021/11/11 19:11:21;;;;;;;;;;;;;;;;;;5031154;28;20014;-74
2021/11/11 19:13:47;;;;;;;;;;;;;;;;;;5030264;28;20034;-75
2021/11/11 19:19:01;;;;;;;;;;;;;;;;;;5030618;28;20355;-75
2021/11/11 19:21:27;;;;;;;;;;;;;;;;;;5011925;28;20386;-75
2021/11/11 19:23:53;;;;;;;;;;;;;;;;;;5009094;28;19913;-76
2021/11/11 19:26:19;;;;;;;;;;;;;;;;;;5012069;28;19910;-76
2021/11/11 19:28:44;;;;;;;;;;;;;;;;;;5010116;28;19921;-75
2021/11/11 19:31:11;;;;;;;;;;;;;;;;;;5012409;28;19963;-75
2021/11/11 19:33:38;;;;;;;;;;;;;;;;;;5012260;28;19909;-74
2021/11/11 19:36:15;;;;;;;;;;;;;;;;;;5011147;28;19913;-74
2021/11/11 19:41:53;;;;;;;;;;;;;;;;;;5011897;28;19917;-74
2021/11/11 19:52:11;;;;;;;;;;;;;;;;;;5026966;28;19909;-76
2021/11/11 19:54:51;;;;;;;;;;;;;;;;;;5010715;28;19910;-76
2021/11/11 19:57:42;;;;;;;;;;;;;;;;;;5009642;28;19962;-74
2021/11/11 20:05:43;;;;;;;;;;;;;;;;;;5011811;28;20429;-74
2021/11/11 20:10:46;;;;;;;;;;;;;;;;;;5012263;28;19913;-75
2021/11/11 20:16:17;;;;;;;;;;;;;;;;;;5019927;28;19910;-75
2021/11/11 20:27:18;;;;;;;;;;;;;;;;;;5011966;28;20277;-75
2021/11/11 21:01:29;;;;;;;;;;;;;;;;;;5010822;28;19916;-75
2021/11/11 21:04:01;;;;;;;;;;;;;;;;;;5028612;28;19909;-75
2021/11/11 21:12:07;;;;;;;;;;;;;;;;;;5030380;28;19920;-76
2021/11/11 21:14:56;;;;;;;;;;;;;;;;;;5028991;28;20379;-75
2021/11/11 21:20:09;;;;;;;;;;;;;;;;;;5027582;28;19952;-75
2021/11/11 21:22:35;;;;;;;;;;;;;;;;;;5028306;28;20327;-76
2021/11/11 21:25:01;;;;;;;;;;;;;;;;;;5027005;28;19909;-77
2021/11/11 21:27:29;;;;;;;;;;;;;;;;;;5019119;28;19925;-76
2021/11/11 21:29:55;;;;;;;;;;;;;;;;;;5008678;28;19909;-75
2021/11/11 21:32:21;;;;;;;;;;;;;;;;;;5010027;28;19905;-75
2021/11/11 21:37:41;;;;;;;;;;;;;;;;;;5010427;28;19924;-75
2021/11/11 21:40:10;;;;;;;;;;;;;;;;;;5007854;28;19921;-75
2021/11/11 21:42:36;;;;;;;;;;;;;;;;;;5009042;28;20052;-75
2021/11/11 21:45:02;;;;;;;;;;;;;;;;;;5009756;28;20408;-77
2021/11/11 21:47:28;;;;;;;;;;;;;;;;;;5008672;28;19932;-75
2021/11/11 21:49:54;;;;;;;;;;;;;;;;;;5008778;28;19913;-75
2021/11/11 21:52:21;;;;;;;;;;;;;;;;;;5015890;28;19917;-74
2021/11/11 21:55:06;;;;;;;;;;;;;;;;;;5008216;28;20515;-74